sensor_id;sensor_type;location;lat;lon;timestamp;pressure;altitude;pressure_sealevel;temperature;humidity
21109;BME280;10712;52.944;9.098;2024-01-30T00:02:07;102671.75;;;11.35;67.08
21109;BME280;10712;52.944;9.098;2024-01-30T00:04:33;102668.28;;;11.33;67.35
21109;BME280;10712;52.944;9.098;2024-01-30T00:06:59;102668.28;;;11.33;67.14
21109;BME280;10712;52.944;9.098;2024-01-30T00:09:24;102668.28;;;11.33;67.27
21109;BME280;10712;52.944;9.098;2024-01-30T00:11:50;102674.59;;;11.29;67.21
21109;BME280;10712;52.944;9.098;2024-01-30T00:14:16;102668.47;;;11.27;67.41
21109;BME280;10712;52.944;9.098;2024-01-30T00:16:42;102669.31;;;11.27;67.20
21109;BME280;10712;52.944;9.098;2024-01-30T00:19:08;102673.78;;;11.27;67.21
21109;BME280;10712;52.944;9.098;2024-01-30T00:21:34;102668.47;;;11.27;67.19
21109;BME280;10712;52.944;9.098;2024-01-30T00:24:00;102672.03;;;11.26;67.33
21109;BME280;10712;52.944;9.098;2024-01-30T00:26:25;102672.97;;;11.25;67.17
21109;BME280;10712;52.944;9.098;2024-01-30T00:28:51;102668.53;;;11.24;67.16
21109;BME280;10712;52.944;9.098;2024-01-30T00:31:17;102673.00;;;11.23;67.20
21109;BME280;10712;52.944;9.098;2024-01-30T00:33:43;102665.94;;;11.21;67.24
21109;BME280;10712;52.944;9.098;2024-01-30T00:36:10;102666.03;;;11.19;67.49
21109;BME280;10712;52.944;9.098;2024-01-30T00:38:36;102662.47;;;11.19;67.14
21109;BME280;10712;52.944;9.098;2024-01-30T00:41:03;102663.38;;;11.18;67.30
21109;BME280;10712;52.944;9.098;2024-01-30T00:43:29;102662.50;;;11.17;67.27
21109;BME280;10712;52.944;9.098;2024-01-30T00:45:55;102662.47;;;11.19;67.35
21109;BME280;10712;52.944;9.098;2024-01-30T00:48:21;102662.41;;;11.20;67.27
21109;BME280;10712;52.944;9.098;2024-01-30T00:50:47;102663.38;;;11.18;67.35
21109;BME280;10712;52.944;9.098;2024-01-30T00:53:12;102666.06;;;11.18;67.31
21109;BME280;10712;52.944;9.098;2024-01-30T00:55:38;102664.28;;;11.18;67.55
21109;BME280;10712;52.944;9.098;2024-01-30T00:58:04;102659.81;;;11.19;67.45
21109;BME280;10712;52.944;9.098;2024-01-30T01:00:30;102663.38;;;11.18;67.43
21109;BME280;10712;52.944;9.098;2024-01-30T01:03:01;102663.47;;;11.15;67.46
21109;BME280;10712;52.944;9.098;2024-01-30T01:05:27;102656.31;;;11.17;67.67
21109;BME280;10712;52.944;9.098;2024-01-30T01:07:53;102662.47;;;11.19;67.46
21109;BME280;10712;52.944;9.098;2024-01-30T01:10:20;102658.81;;;11.21;67.50
21109;BME280;10712;52.944;9.098;2024-01-30T01:12:48;102657.06;;;11.20;67.57
21109;BME280;10712;52.944;9.098;2024-01-30T01:15:14;102657.03;;;11.22;67.54
21109;BME280;10712;52.944;9.098;2024-01-30T01:17:40;102664.13;;;11.23;67.85
21109;BME280;10712;52.944;9.098;2024-01-30T01:20:07;102657.94;;;11.21;67.63
21109;BME280;10712;52.944;9.098;2024-01-30T01:22:34;102652.53;;;11.24;67.62
21109;BME280;10712;52.944;9.098;2024-01-30T01:25:00;102653.41;;;11.24;67.67
21109;BME280;10712;52.944;9.098;2024-01-30T01:27:27;102654.28;;;11.25;67.69
21109;BME280;10712;52.944;9.098;2024-01-30T01:29:53;102643.59;;;11.25;67.67
21109;BME280;10712;52.944;9.098;2024-01-30T01:32:19;102647.19;;;11.24;67.55
21109;BME280;10712;52.944;9.098;2024-01-30T01:34:45;102643.59;;;11.25;67.58
21109;BME280;10712;52.944;9.098;2024-01-30T01:37:11;102643.59;;;11.25;67.73
21109;BME280;10712;52.944;9.098;2024-01-30T01:39:37;102640.94;;;11.25;67.63
21109;BME280;10712;52.944;9.098;2024-01-30T01:42:03;102634.78;;;11.23;67.69
21109;BME280;10712;52.944;9.098;2024-01-30T01:44:29;102633.00;;;11.22;67.80
21109;BME280;10712;52.944;9.098;2024-01-30T01:46:56;102626.91;;;11.18;67.82
21109;BME280;10712;52.944;9.098;2024-01-30T01:49:25;102632.25;;;11.18;67.91
21109;BME280;10712;52.944;9.098;2024-01-30T01:51:54;102623.38;;;11.18;67.76
21109;BME280;10712;52.944;9.098;2024-01-30T01:54:23;102624.28;;;11.17;67.99
21109;BME280;10712;52.944;9.098;2024-01-30T01:56:52;102621.63;;;11.17;67.78
21109;BME280;10712;52.944;9.098;2024-01-30T01:59:20;102615.44;;;11.15;67.82
21109;BME280;10712;52.944;9.098;2024-01-30T02:01:46;102611.91;;;11.14;67.78
21109;BME280;10712;52.944;9.098;2024-01-30T02:04:15;102612.84;;;11.13;67.99
21109;BME280;10712;52.944;9.098;2024-01-30T02:06:43;102604.78;;;11.15;67.83
21109;BME280;10712;52.944;9.098;2024-01-30T02:09:09;102616.28;;;11.17;67.95
21109;BME280;10712;52.944;9.098;2024-01-30T02:11:35;102610.03;;;11.18;68.03
21109;BME280;10712;52.944;9.098;2024-01-30T02:14:05;102613.63;;;11.17;67.84
21109;BME280;10712;52.944;9.098;2024-01-30T02:16:31;102617.16;;;11.17;67.91
21109;BME280;10712;52.944;9.098;2024-01-30T02:18:57;102606.53;;;11.16;68.15
21109;BME280;10712;52.944;9.098;2024-01-30T02:21:23;102610.13;;;11.15;68.14
21109;BME280;10712;52.944;9.098;2024-01-30T02:23:50;102615.44;;;11.15;68.19
21109;BME280;10712;52.944;9.098;2024-01-30T02:26:16;102603.03;;;11.14;68.11
21109;BME280;10712;52.944;9.098;2024-01-30T02:28:42;102600.38;;;11.14;68.08
21109;BME280;10712;52.944;9.098;2024-01-30T02:31:08;102597.69;;;11.14;68.08
21109;BME280;10712;52.944;9.098;2024-01-30T02:33:34;102598.72;;;11.10;68.19
21109;BME280;10712;52.944;9.098;2024-01-30T02:36:00;102607.66;;;11.09;68.16
21109;BME280;10712;52.944;9.098;2024-01-30T02:38:25;102602.31;;;11.09;68.35
21109;BME280;10712;52.944;9.098;2024-01-30T02:40:52;102599.63;;;11.09;68.26
21109;BME280;10712;52.944;9.098;2024-01-30T02:43:18;102597.88;;;11.07;68.35
21109;BME280;10712;52.944;9.098;2024-01-30T02:45:44;102594.41;;;11.05;68.31
21109;BME280;10712;52.944;9.098;2024-01-30T02:48:09;102589.13;;;11.04;68.17
21109;BME280;10712;52.944;9.098;2024-01-30T02:50:35;102585.66;;;11.00;68.38
21109;BME280;10712;52.944;9.098;2024-01-30T02:53:01;102579.53;;;10.98;68.38
21109;BME280;10712;52.944;9.098;2024-01-30T02:55:27;102582.28;;;10.95;68.42
21109;BME280;10712;52.944;9.098;2024-01-30T02:57:53;102580.50;;;10.94;68.34
21109;BME280;10712;52.944;9.098;2024-01-30T03:00:20;102572.66;;;10.90;68.26
21109;BME280;10712;52.944;9.098;2024-01-30T03:02:46;102578.03;;;10.88;68.47
21109;BME280;10712;52.944;9.098;2024-01-30T03:05:12;102572.81;;;10.85;68.37
21109;BME280;10712;52.944;9.098;2024-01-30T03:07:37;102565.78;;;10.83;68.29
21109;BME280;10712;52.944;9.098;2024-01-30T03:10:07;102566.72;;;10.80;68.25
21109;BME280;10712;52.944;9.098;2024-01-30T03:12:33;102566.69;;;10.82;68.11
21109;BME280;10712;52.944;9.098;2024-01-30T03:14:58;102565.78;;;10.83;68.26
21109;BME280;10712;52.944;9.098;2024-01-30T03:17:24;102548.81;;;10.85;68.46
21109;BME280;10712;52.944;9.098;2024-01-30T03:19:50;102553.13;;;10.89;68.25
21109;BME280;10712;52.944;9.098;2024-01-30T03:22:17;102552.22;;;10.90;68.28
21109;BME280;10712;52.944;9.098;2024-01-30T03:24:42;102556.56;;;10.93;68.42
21109;BME280;10712;52.944;9.098;2024-01-30T03:27:09;102550.38;;;10.92;68.33
21109;BME280;10712;52.944;9.098;2024-01-30T03:29:34;102548.63;;;10.91;68.37
21109;BME280;10712;52.944;9.098;2024-01-30T03:32:00;102547.78;;;10.89;68.46
21109;BME280;10712;52.944;9.098;2024-01-30T03:34:26;102558.50;;;10.88;68.18
21109;BME280;10712;52.944;9.098;2024-01-30T03:36:52;102550.66;;;10.83;68.43
21109;BME280;10712;52.944;9.098;2024-01-30T03:39:18;102555.97;;;10.83;68.34
21109;BME280;10712;52.944;9.098;2024-01-30T03:41:44;102559.59;;;10.81;68.32
21109;BME280;10712;52.944;9.098;2024-01-30T03:44:10;102550.72;;;10.80;68.37
21109;BME280;10712;52.944;9.098;2024-01-30T03:46:36;102556.94;;;10.81;68.23
21109;BME280;10712;52.944;9.098;2024-01-30T03:49:02;102552.47;;;10.81;68.11
21109;BME280;10712;52.944;9.098;2024-01-30T03:51:28;102550.72;;;10.80;68.26
21109;BME280;10712;52.944;9.098;2024-01-30T03:53:54;102548.97;;;10.79;68.31
21109;BME280;10712;52.944;9.098;2024-01-30T03:56:20;102542.00;;;10.75;68.09
21109;BME280;10712;52.944;9.098;2024-01-30T03:58:46;102547.38;;;10.74;68.30
21109;BME280;10712;52.944;9.098;2024-01-30T04:01:15;102540.38;;;10.71;68.49
21109;BME280;10712;52.944;9.098;2024-01-30T04:03:41;102535.94;;;10.70;68.39
21109;BME280;10712;52.944;9.098;2024-01-30T04:06:09;102539.56;;;10.68;68.38
21109;BME280;10712;52.944;9.098;2024-01-30T04:08:35;102541.34;;;10.67;68.47
21109;BME280;10712;52.944;9.098;2024-01-30T04:11:06;102540.47;;;10.66;68.59
21109;BME280;10712;52.944;9.098;2024-01-30T04:13:33;102544.94;;;10.66;68.61
21109;BME280;10712;52.944;9.098;2024-01-30T04:16:00;102537.84;;;10.65;68.78
21109;BME280;10712;52.944;9.098;2024-01-30T04:18:30;102540.53;;;10.65;68.83
21109;BME280;10712;52.944;9.098;2024-01-30T04:20:55;102536.94;;;10.66;68.92
21109;BME280;10712;52.944;9.098;2024-01-30T04:23:21;102536.94;;;10.66;68.90
21109;BME280;10712;52.944;9.098;2024-01-30T04:25:47;102538.69;;;10.67;69.01
21109;BME280;10712;52.944;9.098;2024-01-30T04:28:13;102531.53;;;10.69;69.25
21109;BME280;10712;52.944;9.098;2024-01-30T04:30:39;102533.28;;;10.70;69.01
21109;BME280;10712;52.944;9.098;2024-01-30T04:33:05;102523.50;;;10.71;69.19
21109;BME280;10712;52.944;9.098;2024-01-30T04:35:31;102528.69;;;10.75;69.22
21109;BME280;10712;52.944;9.098;2024-01-30T04:37:56;102534.84;;;10.77;69.51
21109;BME280;10712;52.944;9.098;2024-01-30T04:40:22;102531.16;;;10.81;69.37
21109;BME280;10712;52.944;9.098;2024-01-30T04:42:48;102529.31;;;10.83;69.59
21109;BME280;10712;52.944;9.098;2024-01-30T04:45:15;102533.66;;;10.86;69.60
21109;BME280;10712;52.944;9.098;2024-01-30T04:47:40;102530.97;;;10.87;69.56
21109;BME280;10712;52.944;9.098;2024-01-30T04:50:07;102524.75;;;10.87;69.64
21109;BME280;10712;52.944;9.098;2024-01-30T04:52:34;102523.84;;;10.88;69.61
21109;BME280;10712;52.944;9.098;2024-01-30T04:55:00;102525.53;;;10.90;69.77
21109;BME280;10712;52.944;9.098;2024-01-30T04:57:25;102516.66;;;10.90;69.72
21109;BME280;10712;52.944;9.098;2024-01-30T04:59:51;102521.97;;;10.91;70.03
21109;BME280;10712;52.944;9.098;2024-01-30T05:02:17;102521.88;;;10.93;69.95
21109;BME280;10712;52.944;9.098;2024-01-30T05:04:43;102514.72;;;10.95;70.04
21109;BME280;10712;52.944;9.098;2024-01-30T05:07:09;102512.94;;;10.95;70.18
21109;BME280;10712;52.944;9.098;2024-01-30T05:09:35;102511.09;;;10.97;70.10
21109;BME280;10712;52.944;9.098;2024-01-30T05:12:01;102509.34;;;10.96;70.19
21109;BME280;10712;52.944;9.098;2024-01-30T05:14:26;102517.31;;;10.98;70.10
21109;BME280;10712;52.944;9.098;2024-01-30T05:16:52;102517.22;;;10.99;70.08
21109;BME280;10712;52.944;9.098;2024-01-30T05:19:18;102511.97;;;10.98;70.28
21109;BME280;10712;52.944;9.098;2024-01-30T05:21:44;102504.88;;;10.97;70.20
21109;BME280;10712;52.944;9.098;2024-01-30T05:24:10;102512.00;;;10.96;70.25
21109;BME280;10712;52.944;9.098;2024-01-30T05:26:36;102512.94;;;10.95;70.29
21109;BME280;10712;52.944;9.098;2024-01-30T05:29:02;102520.00;;;10.96;70.40
21109;BME280;10712;52.944;9.098;2024-01-30T05:31:28;102514.69;;;10.96;70.43
21109;BME280;10712;52.944;9.098;2024-01-30T05:33:54;102517.38;;;10.95;70.48
21109;BME280;10712;52.944;9.098;2024-01-30T05:36:20;102507.59;;;10.95;70.44
21109;BME280;10712;52.944;9.098;2024-01-30T05:38:47;102507.59;;;10.95;70.47
21109;BME280;10712;52.944;9.098;2024-01-30T05:41:13;102511.22;;;10.93;70.46
21109;BME280;10712;52.944;9.098;2024-01-30T05:43:39;102505.03;;;10.92;70.58
21109;BME280;10712;52.944;9.098;2024-01-30T05:46:06;102506.75;;;10.93;70.49
21109;BME280;10712;52.944;9.098;2024-01-30T05:48:31;102498.75;;;10.93;70.58
21109;BME280;10712;52.944;9.098;2024-01-30T05:50:58;102496.94;;;10.95;70.37
21109;BME280;10712;52.944;9.098;2024-01-30T05:53:25;102500.44;;;10.97;70.42
21109;BME280;10712;52.944;9.098;2024-01-30T05:55:51;102498.56;;;10.99;70.53
21109;BME280;10712;52.944;9.098;2024-01-30T05:58:17;102504.72;;;11.01;70.50
21109;BME280;10712;52.944;9.098;2024-01-30T06:00:42;102501.06;;;11.05;70.39
21109;BME280;10712;52.944;9.098;2024-01-30T06:03:08;102505.44;;;11.06;70.38
21109;BME280;10712;52.944;9.098;2024-01-30T06:05:34;102507.13;;;11.11;70.32
21109;BME280;10712;52.944;9.098;2024-01-30T06:08:00;102508.03;;;11.10;70.48
21109;BME280;10712;52.944;9.098;2024-01-30T06:10:26;102513.38;;;11.10;70.44
21109;BME280;10712;52.944;9.098;2024-01-30T06:12:51;102518.69;;;11.10;70.41
21109;BME280;10712;52.944;9.098;2024-01-30T06:15:17;102514.19;;;11.12;70.33
21109;BME280;10712;52.944;9.098;2024-01-30T06:17:43;102511.41;;;11.15;70.40
21109;BME280;10712;52.944;9.098;2024-01-30T06:20:09;102508.66;;;11.18;70.33
21109;BME280;10712;52.944;9.098;2024-01-30T06:22:36;102498.00;;;11.18;70.32
21109;BME280;10712;52.944;9.098;2024-01-30T06:25:02;102498.88;;;11.18;70.35
21109;BME280;10712;52.944;9.098;2024-01-30T06:27:27;102501.53;;;11.18;70.35
21109;BME280;10712;52.944;9.098;2024-01-30T06:29:53;102489.06;;;11.19;70.23
21109;BME280;10712;52.944;9.098;2024-01-30T06:32:19;102493.50;;;11.20;70.34
21109;BME280;10712;52.944;9.098;2024-01-30T06:34:45;102494.28;;;11.22;70.26
21109;BME280;10712;52.944;9.098;2024-01-30T06:37:10;102496.03;;;11.23;70.27
21109;BME280;10712;52.944;9.098;2024-01-30T06:39:36;102492.44;;;11.24;70.49
21109;BME280;10712;52.944;9.098;2024-01-30T06:42:02;102491.50;;;11.26;70.38
21109;BME280;10712;52.944;9.098;2024-01-30T06:44:28;102492.38;;;11.27;70.38
21109;BME280;10712;52.944;9.098;2024-01-30T06:46:54;102490.50;;;11.29;70.42
21109;BME280;10712;52.944;9.098;2024-01-30T06:49:19;102493.94;;;11.32;70.44
21109;BME280;10712;52.944;9.098;2024-01-30T06:51:47;102490.28;;;11.35;70.59
21109;BME280;10712;52.944;9.098;2024-01-30T06:54:13;102491.13;;;11.37;70.62
21109;BME280;10712;52.944;9.098;2024-01-30T06:56:39;102495.41;;;11.41;70.61
21109;BME280;10712;52.944;9.098;2024-01-30T06:59:05;102497.06;;;11.45;70.55
21109;BME280;10712;52.944;9.098;2024-01-30T07:01:31;102487.09;;;11.50;70.62
21109;BME280;10712;52.944;9.098;2024-01-30T07:03:57;102493.25;;;11.52;70.67
21109;BME280;10712;52.944;9.098;2024-01-30T07:06:23;102480.63;;;11.57;70.73
21109;BME280;10712;52.944;9.098;2024-01-30T07:08:50;102487.63;;;11.61;70.80
21109;BME280;10712;52.944;9.098;2024-01-30T07:11:22;102492.84;;;11.64;70.71
21109;BME280;10712;52.944;9.098;2024-01-30T07:13:51;102487.41;;;11.67;70.73
21109;BME280;10712;52.944;9.098;2024-01-30T07:16:17;102490.88;;;11.69;70.94
21109;BME280;10712;52.944;9.098;2024-01-30T07:18:44;102500.63;;;11.70;70.99
21109;BME280;10712;52.944;9.098;2024-01-30T07:21:10;102481.75;;;11.76;70.96
21109;BME280;10712;52.944;9.098;2024-01-30T07:23:36;102490.59;;;11.78;71.03
21109;BME280;10712;52.944;9.098;2024-01-30T07:26:05;102478.84;;;11.82;71.04
21109;BME280;10712;52.944;9.098;2024-01-30T07:28:32;102478.94;;;11.81;71.17
21109;BME280;10712;52.944;9.098;2024-01-30T07:30:58;102477.94;;;11.83;71.19
21109;BME280;10712;52.944;9.098;2024-01-30T07:33:24;102477.94;;;11.83;71.38
21109;BME280;10712;52.944;9.098;2024-01-30T07:35:53;102469.81;;;11.87;71.23
21109;BME280;10712;52.944;9.098;2024-01-30T07:38:19;102481.34;;;11.89;71.50
21109;BME280;10712;52.944;9.098;2024-01-30T07:40:46;102476.91;;;11.88;71.57
21109;BME280;10712;52.944;9.098;2024-01-30T07:43:12;102475.13;;;11.88;71.63
21109;BME280;10712;52.944;9.098;2024-01-30T07:45:37;102476.78;;;11.91;71.65
21109;BME280;10712;52.944;9.098;2024-01-30T07:48:05;102466.94;;;11.93;71.74
21109;BME280;10712;52.944;9.098;2024-01-30T07:50:32;102466.84;;;11.96;71.58
21109;BME280;10712;52.944;9.098;2024-01-30T07:53:00;102462.22;;;11.99;71.63
21109;BME280;10712;52.944;9.098;2024-01-30T07:55:26;102467.53;;;12.01;71.60
21109;BME280;10712;52.944;9.098;2024-01-30T07:57:57;102455.91;;;12.02;71.98
21109;BME280;10712;52.944;9.098;2024-01-30T08:00:23;102468.22;;;12.06;71.80
21109;BME280;10712;52.944;9.098;2024-01-30T08:02:48;102465.38;;;12.10;71.92
21109;BME280;10712;52.944;9.098;2024-01-30T08:05:14;102461.66;;;12.14;72.03
21109;BME280;10712;52.944;9.098;2024-01-30T08:07:43;102460.66;;;12.17;72.03
21109;BME280;10712;52.944;9.098;2024-01-30T08:10:12;102460.50;;;12.21;72.23
21109;BME280;10712;52.944;9.098;2024-01-30T08:12:38;102460.22;;;12.29;72.10
21109;BME280;10712;52.944;9.098;2024-01-30T08:15:05;102467.19;;;12.33;72.25
21109;BME280;10712;52.944;9.098;2024-01-30T08:17:31;102455.31;;;12.40;72.31
21109;BME280;10712;52.944;9.098;2024-01-30T08:19:57;102447.19;;;12.43;72.48
21109;BME280;10712;52.944;9.098;2024-01-30T08:22:23;102447.69;;;12.53;72.25
21109;BME280;10712;52.944;9.098;2024-01-30T08:24:48;102446.72;;;12.55;72.51
21109;BME280;10712;52.944;9.098;2024-01-30T08:27:14;102442.88;;;12.62;72.71
21109;BME280;10712;52.944;9.098;2024-01-30T08:29:40;102447.84;;;12.72;72.88
21109;BME280;10712;52.944;9.098;2024-01-30T08:32:06;102450.84;;;12.86;72.95
21109;BME280;10712;52.944;9.098;2024-01-30T08:34:33;102451.38;;;12.94;72.90
21109;BME280;10712;52.944;9.098;2024-01-30T08:36:59;102446.47;;;13.05;73.50
21109;BME280;10712;52.944;9.098;2024-01-30T08:39:25;102448.03;;;13.11;73.13
21109;BME280;10712;52.944;9.098;2024-01-30T08:41:51;102448.97;;;13.10;73.37
21109;BME280;10712;52.944;9.098;2024-01-30T08:44:17;102440.66;;;13.17;73.25
21109;BME280;10712;52.944;9.098;2024-01-30T08:46:44;102440.66;;;13.17;73.30
21109;BME280;10712;52.944;9.098;2024-01-30T08:49:16;102429.81;;;13.20;73.14
21109;BME280;10712;52.944;9.098;2024-01-30T08:51:42;102438.63;;;13.22;73.21
21109;BME280;10712;52.944;9.098;2024-01-30T08:54:08;102441.19;;;13.25;73.23
21109;BME280;10712;52.944;9.098;2024-01-30T08:56:33;102440.13;;;13.29;73.15
21109;BME280;10712;52.944;9.098;2024-01-30T08:58:59;102440.94;;;13.31;73.26
21109;BME280;10712;52.944;9.098;2024-01-30T09:01:25;102446.06;;;13.36;73.37
21109;BME280;10712;52.944;9.098;2024-01-30T09:03:52;102452.19;;;13.39;73.26
21109;BME280;10712;52.944;9.098;2024-01-30T09:06:17;102451.91;;;13.46;73.48
21109;BME280;10712;52.944;9.098;2024-01-30T09:08:43;102452.59;;;13.51;73.27
21109;BME280;10712;52.944;9.098;2024-01-30T09:11:11;102458.47;;;13.59;73.19
21109;BME280;10712;52.944;9.098;2024-01-30T09:13:37;102456.34;;;13.67;73.28
21109;BME280;10712;52.944;9.098;2024-01-30T09:16:04;102445.31;;;13.74;73.21
21109;BME280;10712;52.944;9.098;2024-01-30T09:18:30;102448.69;;;13.78;73.22
21109;BME280;10712;52.944;9.098;2024-01-30T09:20:55;102439.31;;;13.88;72.75
21109;BME280;10712;52.944;9.098;2024-01-30T09:23:21;102434.09;;;13.85;73.12
21109;BME280;10712;52.944;9.098;2024-01-30T09:25:48;102444.53;;;13.91;73.09
21109;BME280;10712;52.944;9.098;2024-01-30T09:28:14;102442.78;;;13.90;73.10
21109;BME280;10712;52.944;9.098;2024-01-30T09:30:40;102448.06;;;13.92;72.94
21109;BME280;10712;52.944;9.098;2024-01-30T09:33:06;102456.88;;;13.95;73.24
21109;BME280;10712;52.944;9.098;2024-01-30T09:35:32;102455.78;;;13.99;73.10
21109;BME280;10712;52.944;9.098;2024-01-30T09:37:59;102459.06;;;14.25;72.57
21109;BME280;10712;52.944;9.098;2024-01-30T09:40:25;102454.16;;;14.15;73.08
21109;BME280;10712;52.944;9.098;2024-01-30T09:42:51;102462.72;;;14.24;72.78
21109;BME280;10712;52.944;9.098;2024-01-30T09:45:25;102458.28;;;14.23;72.81
21109;BME280;10712;52.944;9.098;2024-01-30T09:47:52;102457.19;;;14.27;72.75
21109;BME280;10712;52.944;9.098;2024-01-30T09:50:19;102463.28;;;14.30;72.71
21109;BME280;10712;52.944;9.098;2024-01-30T09:52:47;102457.06;;;14.30;72.96
21109;BME280;10712;52.944;9.098;2024-01-30T09:55:13;102451.53;;;14.33;72.99
21109;BME280;10712;52.944;9.098;2024-01-30T09:57:41;102456.91;;;14.33;72.73
21109;BME280;10712;52.944;9.098;2024-01-30T10:00:07;102449.66;;;14.35;72.67
21109;BME280;10712;52.944;9.098;2024-01-30T10:02:41;102449.56;;;14.38;72.72
21109;BME280;10712;52.944;9.098;2024-01-30T10:05:08;102448.53;;;14.40;72.96
21109;BME280;10712;52.944;9.098;2024-01-30T10:07:34;102447.53;;;14.43;72.97
21109;BME280;10712;52.944;9.098;2024-01-30T10:10:00;102446.44;;;14.47;72.95
21109;BME280;10712;52.944;9.098;2024-01-30T10:12:27;102443.69;;;14.48;72.97
21109;BME280;10712;52.944;9.098;2024-01-30T10:14:52;102441.88;;;14.49;73.13
21109;BME280;10712;52.944;9.098;2024-01-30T10:17:19;102448.81;;;14.53;73.23
21109;BME280;10712;52.944;9.098;2024-01-30T10:19:47;102437.94;;;14.56;73.26
21109;BME280;10712;52.944;9.098;2024-01-30T10:22:13;102434.16;;;14.60;73.22
21109;BME280;10712;52.944;9.098;2024-01-30T10:24:39;102440.97;;;14.67;73.29
21109;BME280;10712;52.944;9.098;2024-01-30T10:27:05;102440.03;;;14.68;73.63
21109;BME280;10712;52.944;9.098;2024-01-30T10:29:31;102440.41;;;14.79;73.64
21109;BME280;10712;52.944;9.098;2024-01-30T10:32:05;102437.31;;;14.87;73.64
21109;BME280;10712;52.944;9.098;2024-01-30T10:34:33;102440.50;;;14.95;73.45
21109;BME280;10712;52.944;9.098;2024-01-30T10:37:10;102444.69;;;15.01;73.38
21109;BME280;10712;52.944;9.098;2024-01-30T10:39:43;102428.13;;;15.10;73.41
21109;BME280;10712;52.944;9.098;2024-01-30T10:42:15;102431.16;;;15.21;73.34
21109;BME280;10712;52.944;9.098;2024-01-30T10:45:02;102430.97;;;15.24;73.09
21109;BME280;10712;52.944;9.098;2024-01-30T10:47:35;102438.09;;;15.25;73.15
21109;BME280;10712;52.944;9.098;2024-01-30T10:50:03;102431.63;;;15.29;73.24
21109;BME280;10712;52.944;9.098;2024-01-30T10:52:30;102422.53;;;15.31;73.20
21109;BME280;10712;52.944;9.098;2024-01-30T10:54:57;102426.91;;;15.34;73.16
21109;BME280;10712;52.944;9.098;2024-01-30T10:57:25;102423.97;;;15.38;73.21
21109;BME280;10712;52.944;9.098;2024-01-30T10:59:56;102422.06;;;15.41;73.23
21109;BME280;10712;52.944;9.098;2024-01-30T11:02:24;102421.81;;;15.45;73.20
21109;BME280;10712;52.944;9.098;2024-01-30T11:04:57;102420.69;;;15.49;73.27
21109;BME280;10712;52.944;9.098;2024-01-30T11:07:29;102422.34;;;15.53;73.33
21109;BME280;10712;52.944;9.098;2024-01-30T11:12:25;102421.88;;;15.62;73.39
21109;BME280;10712;52.944;9.098;2024-01-30T11:15:09;102424.03;;;15.71;73.55
21109;BME280;10712;52.944;9.098;2024-01-30T11:20:25;102423.50;;;15.98;73.35
21109;BME280;10712;52.944;9.098;2024-01-30T11:22:53;102422.00;;;16.09;73.22
21109;BME280;10712;52.944;9.098;2024-01-30T11:25:21;102436.41;;;16.24;73.01
21109;BME280;10712;52.944;9.098;2024-01-30T11:27:54;102424.53;;;16.28;72.78
21109;BME280;10712;52.944;9.098;2024-01-30T11:30:28;102420.69;;;16.32;73.02
21109;BME280;10712;52.944;9.098;2024-01-30T11:35:26;102413.00;;;16.58;72.14
21109;BME280;10712;52.944;9.098;2024-01-30T11:37:54;102419.16;;;16.60;72.20
21109;BME280;10712;52.944;9.098;2024-01-30T11:40:21;102417.88;;;16.67;71.95
21109;BME280;10712;52.944;9.098;2024-01-30T11:42:48;102416.50;;;16.75;71.77
21109;BME280;10712;52.944;9.098;2024-01-30T11:45:14;102416.13;;;16.81;71.75
21109;BME280;10712;52.944;9.098;2024-01-30T11:47:40;102401.63;;;16.84;71.81
21109;BME280;10712;52.944;9.098;2024-01-30T11:50:06;102400.50;;;16.88;71.70
21109;BME280;10712;52.944;9.098;2024-01-30T11:52:34;102392.25;;;16.91;71.59
21109;BME280;10712;52.944;9.098;2024-01-30T11:55:00;102385.34;;;17.01;71.53
21109;BME280;10712;52.944;9.098;2024-01-30T11:57:27;102389.91;;;17.01;71.33
21109;BME280;10712;52.944;9.098;2024-01-30T11:59:53;102392.09;;;17.08;71.28
21109;BME280;10712;52.944;9.098;2024-01-30T12:02:19;102401.38;;;17.18;70.75
21109;BME280;10712;52.944;9.098;2024-01-30T12:04:45;102382.91;;;17.12;70.87
21109;BME280;10712;52.944;9.098;2024-01-30T12:07:11;102382.13;;;17.10;70.93
21109;BME280;10712;52.944;9.098;2024-01-30T12:09:38;102388.22;;;17.14;71.10
21109;BME280;10712;52.944;9.098;2024-01-30T12:12:04;102384.28;;;17.19;71.07
21109;BME280;10712;52.944;9.098;2024-01-30T12:14:31;102385.41;;;17.15;71.10
21109;BME280;10712;52.944;9.098;2024-01-30T12:16:57;102389.06;;;17.14;71.19
21109;BME280;10712;52.944;9.098;2024-01-30T12:19:24;102395.13;;;17.18;71.06
21109;BME280;10712;52.944;9.098;2024-01-30T12:21:57;102391.78;;;17.14;71.19
21109;BME280;10712;52.944;9.098;2024-01-30T12:24:28;102401.22;;;17.21;71.09
21109;BME280;10712;52.944;9.098;2024-01-30T12:26:59;102397.91;;;17.16;71.14
21109;BME280;10712;52.944;9.098;2024-01-30T12:29:25;102404.09;;;17.18;71.21
21109;BME280;10712;52.944;9.098;2024-01-30T12:31:54;102403.03;;;17.21;71.01
21109;BME280;10712;52.944;9.098;2024-01-30T12:34:21;102409.63;;;17.15;71.26
21109;BME280;10712;52.944;9.098;2024-01-30T12:36:49;102410.50;;;17.16;71.23
21109;BME280;10712;52.944;9.098;2024-01-30T12:39:16;102405.03;;;17.17;71.39
21109;BME280;10712;52.944;9.098;2024-01-30T12:41:41;102412.25;;;17.17;71.47
21109;BME280;10712;52.944;9.098;2024-01-30T12:44:08;102413.13;;;17.17;71.59
21109;BME280;10712;52.944;9.098;2024-01-30T12:46:36;102416.69;;;17.18;71.58
21109;BME280;10712;52.944;9.098;2024-01-30T12:49:02;102415.72;;;17.19;71.69
21109;BME280;10712;52.944;9.098;2024-01-30T12:51:28;102413.91;;;17.19;71.69
21109;BME280;10712;52.944;9.098;2024-01-30T12:53:54;102410.25;;;17.20;71.79
21109;BME280;10712;52.944;9.098;2024-01-30T12:56:20;102403.91;;;17.21;71.94